createdAt,value
2017-06-30T00:00:50.445Z,86.1
2017-06-30T00:01:49.160Z,86
2017-06-30T00:02:48.381Z,85.9
2017-06-30T00:03:47.598Z,85.8
2017-06-30T00:04:47.069Z,85.8
2017-06-30T00:05:45.930Z,85.9
2017-06-30T00:06:45.188Z,85.8
2017-06-30T00:07:44.907Z,85.8
2017-06-30T00:08:44.125Z,85.8
2017-06-30T00:09:43.338Z,86.1
2017-06-30T00:10:43.395Z,86
2017-06-30T00:11:41.625Z,86.2
2017-06-30T00:13:40.420Z,86.2
2017-06-30T00:14:39.646Z,86.2
2017-06-30T00:15:38.878Z,85.8
2017-06-30T00:16:38.272Z,86
2017-06-30T00:17:37.380Z,85.9
2017-06-30T00:18:36.476Z,85.9
2017-06-30T00:19:36.204Z,85.9
2017-06-30T00:20:35.431Z,86
2017-06-30T00:21:34.651Z,86
2017-06-30T00:22:34.124Z,85.9
2017-06-30T00:23:33.238Z,86
2017-06-30T00:24:32.461Z,85.4
2017-06-30T00:25:31.564Z,85.5
2017-06-30T00:26:30.754Z,85.4
2017-06-30T00:27:29.989Z,85.4
2017-06-30T00:28:29.962Z,85.5
2017-06-30T00:29:28.556Z,85.5
2017-06-30T00:31:27.068Z,85.5
2017-06-30T00:32:26.683Z,85.3
2017-06-30T00:33:25.897Z,85.3
2017-06-30T00:34:25.376Z,85.8
2017-06-30T00:36:23.476Z,85.6
2017-06-30T00:37:23.205Z,85.5
2017-06-30T00:38:22.420Z,85.5
2017-06-30T00:39:21.641Z,85.6
2017-06-30T00:40:21.155Z,85.4
2017-06-30T00:41:19.870Z,85.5
2017-06-30T00:42:19.595Z,85.2
2017-06-30T00:43:18.804Z,85.3
2017-06-30T00:44:18.607Z,85.1
2017-06-30T00:45:17.321Z,84.7
2017-06-30T00:46:16.804Z,84.6
2017-06-30T00:47:15.398Z,84.8
2017-06-30T00:49:14.387Z,84.3
2017-06-30T00:50:13.762Z,84.5
2017-06-30T00:51:12.982Z,84.6
2017-06-30T00:52:12.332Z,84.4
2017-06-30T00:53:11.423Z,84.4
2017-06-30T00:54:10.642Z,84.7
2017-06-30T00:55:09.860Z,84.5
2017-06-30T00:56:09.076Z,84.3
2017-06-30T00:57:08.283Z,84.6
2017-06-30T00:59:07.142Z,84.1
2017-06-30T01:00:06.238Z,83.9
2017-06-30T01:01:05.461Z,83.9
2017-06-30T01:02:04.471Z,83.6
2017-06-30T01:03:04.197Z,83.4
2017-06-30T01:04:03.418Z,83.5
2017-06-30T01:05:02.919Z,83.8
2017-06-30T01:06:01.902Z,83.8
2017-06-30T01:07:01.127Z,83.8
2017-06-30T01:08:00.346Z,83.6
2017-06-30T01:08:59.561Z,83.8
2017-06-30T01:09:58.907Z,84
2017-06-30T01:10:58.817Z,83.2
2017-06-30T01:11:57.521Z,83.7
2017-06-30T01:12:56.740Z,83.7
2017-06-30T01:13:55.944Z,83.6
2017-06-30T01:14:55.161Z,83.6
2017-06-30T01:15:25.573Z,83.6
2017-06-30T01:15:56.696Z,83.6
2017-06-30T01:16:26.711Z,83.6
2017-06-30T01:16:57.192Z,83.4
2017-06-30T01:17:27.727Z,83.4
2017-06-30T01:18:52.620Z,83.6
2017-06-30T01:19:51.832Z,83.4
2017-06-30T01:20:51.055Z,83.4
2017-06-30T01:21:50.538Z,83.6
2017-06-30T01:22:49.835Z,83.5
2017-06-30T01:23:48.548Z,83.5
2017-06-30T01:24:48.276Z,83.5
2017-06-30T01:25:47.505Z,83.8
2017-06-30T01:26:46.727Z,83.5
2017-06-30T01:27:46.197Z,83.6
2017-06-30T01:28:44.909Z,83.5
2017-06-30T01:29:44.504Z,83.7
2017-06-30T01:30:43.802Z,83.5
2017-06-30T01:31:43.023Z,83.8
2017-06-30T01:32:42.245Z,83.9
2017-06-30T01:33:41.621Z,83.8
2017-06-30T01:34:40.719Z,83.7
2017-06-30T01:35:39.823Z,83.8
2017-06-30T01:36:39.438Z,83.8
2017-06-30T01:37:10.448Z,83.8
2017-06-30T01:37:40.492Z,83.9
2017-06-30T01:38:11.024Z,83.9
2017-06-30T01:38:41.998Z,83.5
2017-06-30T01:39:11.908Z,83.5
2017-06-30T01:40:36.166Z,84
2017-06-30T01:41:35.381Z,84
2017-06-30T01:42:35.117Z,84
2017-06-30T01:44:33.856Z,83.9
2017-06-30T01:45:32.561Z,83.9
2017-06-30T01:46:31.782Z,83.8
2017-06-30T01:47:31.007Z,83.8
2017-06-30T01:48:30.718Z,83.8
2017-06-30T01:49:29.934Z,83.7
2017-06-30T01:50:29.331Z,83.8
2017-06-30T01:51:28.056Z,83.8
2017-06-30T01:52:27.777Z,83.6
2017-06-30T01:53:26.870Z,84.2
2017-06-30T01:54:26.085Z,84.1
2017-06-30T01:55:25.499Z,84.1
2017-06-30T01:55:56.273Z,84.1
2017-06-30T01:56:26.300Z,84.1
2017-06-30T01:56:57.399Z,84.1
2017-06-30T01:58:23.290Z,84.5
2017-06-30T01:59:22.502Z,84.5
2017-06-30T02:01:21.351Z,84.1
2017-06-30T02:02:20.052Z,84.1
2017-06-30T02:03:19.279Z,84.2
2017-06-30T02:04:19.006Z,84.3
2017-06-30T02:05:18.099Z,84.2
2017-06-30T02:06:17.322Z,84
2017-06-30T02:07:16.681Z,84.1
2017-06-30T02:08:15.899Z,83.8
2017-06-30T02:09:15.108Z,84
2017-06-30T02:11:13.719Z,83.8
2017-06-30T02:12:13.014Z,83.5
2017-06-30T02:13:12.498Z,83.5
2017-06-30T02:14:11.226Z,83.6
2017-06-30T02:15:10.442Z,83.6
2017-06-30T02:16:10.170Z,83.6
2017-06-30T02:17:09.391Z,83.6
2017-06-30T02:18:08.619Z,83.6
2017-06-30T02:19:08.100Z,83.3
2017-06-30T02:20:07.217Z,83.7
2017-06-30T02:21:06.891Z,83.2
2017-06-30T02:22:05.602Z,83.5
2017-06-30T02:23:05.289Z,83.6
2017-06-30T02:24:03.937Z,83.3
2017-06-30T02:25:03.069Z,83.6
2017-06-30T02:26:02.874Z,83.5
2017-06-30T02:27:02.103Z,83.5
2017-06-30T02:28:01.315Z,83.3
2017-06-30T02:29:00.419Z,83.4
2017-06-30T02:29:59.633Z,83.4
2017-06-30T02:30:59.144Z,83.4
2017-06-30T02:31:58.369Z,83.5
2017-06-30T02:32:57.581Z,83.7
2017-06-30T02:33:56.797Z,83.4
2017-06-30T02:34:56.020Z,83.4
2017-06-30T02:35:55.257Z,83.4
2017-06-30T02:36:54.736Z,83.2
2017-06-30T02:37:54.025Z,83.1
2017-06-30T02:38:53.287Z,83.2
2017-06-30T02:39:52.507Z,83.3
2017-06-30T02:40:51.722Z,83.3
2017-06-30T02:41:50.949Z,83.1
2017-06-30T02:42:50.462Z,83.1
2017-06-30T02:43:49.683Z,83.1
2017-06-30T02:44:48.912Z,83.4
2017-06-30T02:45:48.150Z,83.1
2017-06-30T02:46:47.268Z,83.1
2017-06-30T02:47:46.482Z,83.5
2017-06-30T02:48:46.017Z,83.4
2017-06-30T02:49:45.819Z,83.1
2017-06-30T02:50:44.295Z,83.4
2017-06-30T02:51:43.495Z,83.4
2017-06-30T02:52:42.701Z,83.4
2017-06-30T02:53:41.909Z,83.3
2017-06-30T02:54:42.442Z,83.2
2017-06-30T02:55:40.645Z,83.3
2017-06-30T02:56:39.844Z,83.5
2017-06-30T02:57:39.053Z,83.6
2017-06-30T02:58:38.267Z,83.7
2017-06-30T02:59:37.485Z,83.4
2017-06-30T03:00:37.452Z,83.4
2017-06-30T03:01:36.034Z,83.8
2017-06-30T03:02:35.747Z,83.6
2017-06-30T03:03:34.752Z,83.1
2017-06-30T03:04:34.229Z,83.6
2017-06-30T03:05:33.432Z,83.3
2017-06-30T03:06:32.906Z,83.4
2017-06-30T03:07:32.109Z,83.7
2017-06-30T03:08:31.195Z,83.2
2017-06-30T03:09:30.548Z,82.8
2017-06-30T03:10:29.751Z,82.8
2017-06-30T03:11:28.972Z,82.8
2017-06-30T03:12:28.316Z,83.1
2017-06-30T03:13:27.400Z,83.1
2017-06-30T03:14:26.486Z,83.4
2017-06-30T03:15:26.200Z,82.6
2017-06-30T03:16:25.406Z,83.1
2017-06-30T03:17:24.474Z,83
2017-06-30T03:18:23.929Z,83.3
2017-06-30T03:19:23.177Z,83
2017-06-30T03:20:22.393Z,83.3
2017-06-30T03:21:21.600Z,83.3
2017-06-30T03:23:20.770Z,82.7
2017-06-30T03:24:19.800Z,82.8
2017-06-30T03:25:18.507Z,82.9
2017-06-30T03:26:17.712Z,83
2017-06-30T03:27:16.992Z,83
2017-06-30T03:28:16.699Z,83
2017-06-30T03:29:15.899Z,83.1
2017-06-30T03:30:15.323Z,83.1
2017-06-30T03:31:14.018Z,82.9
2017-06-30T03:32:13.732Z,82.7
2017-06-30T03:34:12.193Z,82.8
2017-06-30T03:35:11.403Z,82.6
2017-06-30T03:36:10.852Z,82.7
2017-06-30T03:37:10.065Z,82.3
2017-06-30T03:38:09.042Z,82.3
2017-06-30T03:39:08.525Z,82
2017-06-30T03:40:07.738Z,82
2017-06-30T03:41:06.862Z,82.6
2017-06-30T03:42:06.326Z,82
2017-06-30T03:43:05.537Z,82.3
2017-06-30T03:44:04.629Z,82.5
2017-06-30T03:45:04.408Z,82.4
2017-06-30T03:46:03.485Z,82.4
2017-06-30T03:47:02.589Z,82.2
2017-06-30T03:48:01.939Z,82.2
2017-06-30T03:49:01.155Z,82.5
2017-06-30T03:50:00.428Z,82.3
2017-06-30T03:50:59.624Z,82.1
2017-06-30T03:51:58.926Z,82.4
2017-06-30T03:52:58.057Z,82.4
2017-06-30T03:53:57.563Z,82.2
2017-06-30T03:54:27.573Z,82.2
2017-06-30T03:54:58.091Z,82.2
2017-06-30T03:55:28.670Z,82.2
2017-06-30T03:56:55.455Z,81.9
2017-06-30T03:57:54.665Z,81.7
2017-06-30T03:58:53.753Z,81.9
2017-06-30T03:59:53.254Z,81.8
2017-06-30T04:01:51.347Z,81.8
2017-06-30T04:02:51.067Z,81.4
2017-06-30T04:03:50.273Z,81.4
2017-06-30T04:04:49.485Z,81.5
2017-06-30T04:05:49.044Z,81.4
2017-06-30T04:06:47.745Z,81.2
2017-06-30T04:07:46.966Z,81.3
2017-06-30T04:08:46.709Z,82.1
2017-06-30T04:09:45.920Z,82.3
2017-06-30T04:10:45.139Z,82.2
2017-06-30T04:11:44.606Z,82.1
2017-06-30T04:12:43.305Z,82.4
2017-06-30T04:13:43.020Z,82.5
2017-06-30T04:14:42.162Z,82.9
2017-06-30T04:15:12.761Z,82.9
2017-06-30T04:15:43.166Z,82.4
2017-06-30T04:16:40.937Z,82.4
2017-06-30T04:17:39.900Z,82.5
2017-06-30T04:18:39.101Z,82.1
2017-06-30T04:19:38.299Z,82.5
2017-06-30T04:20:37.507Z,82.5
2017-06-30T04:21:36.707Z,82.5
2017-06-30T04:22:36.422Z,82.3
2017-06-30T04:24:34.883Z,82.6
2017-06-30T04:25:34.087Z,82.2
2017-06-30T04:26:33.291Z,82.3
2017-06-30T04:27:32.479Z,82.5
2017-06-30T04:28:31.679Z,82.7
2017-06-30T04:29:30.884Z,82.6
2017-06-30T04:30:30.230Z,82.3
2017-06-30T04:31:29.442Z,82.1
2017-06-30T04:32:28.652Z,82.1
2017-06-30T04:33:28.241Z,82
2017-06-30T04:34:28.617Z,82.3
2017-06-30T04:35:26.809Z,82
2017-06-30T04:36:26.278Z,82.2
2017-06-30T04:37:24.978Z,81.6
2017-06-30T04:38:24.690Z,81.6
2017-06-30T04:39:23.903Z,81.6
2017-06-30T04:40:22.867Z,82
2017-06-30T04:41:22.447Z,82.1
2017-06-30T04:42:21.905Z,81.8
2017-06-30T04:43:20.364Z,81.8
2017-06-30T04:44:20.074Z,81.5
2017-06-30T04:45:19.321Z,81.5
2017-06-30T04:46:18.548Z,81.3
2017-06-30T04:47:17.754Z,81.6
2017-06-30T04:48:17.595Z,81.7
2017-06-30T04:49:16.564Z,81.5
2017-06-30T04:50:15.651Z,81.8
2017-06-30T04:51:14.741Z,81.7
2017-06-30T04:52:14.457Z,81.7
2017-06-30T04:53:13.662Z,81.7
2017-06-30T04:54:13.133Z,81
2017-06-30T04:55:11.829Z,80.7
2017-06-30T04:56:11.533Z,80.7
2017-06-30T04:57:10.744Z,80.7
2017-06-30T04:58:10.520Z,81.1
2017-06-30T04:59:09.126Z,80.5
2017-06-30T05:00:08.476Z,81
2017-06-30T05:01:07.455Z,80.9
2017-06-30T05:02:07.167Z,80.4
2017-06-30T05:03:06.373Z,80.6
2017-06-30T05:04:05.458Z,80.3
2017-06-30T05:05:04.655Z,80.2
2017-06-30T05:06:04.109Z,80.6
2017-06-30T05:07:03.314Z,80.8
2017-06-30T05:08:02.786Z,80.5
2017-06-30T05:09:02.021Z,80.6
2017-06-30T05:10:01.254Z,80.5
2017-06-30T05:11:00.337Z,80.4
2017-06-30T05:11:59.808Z,80.7
2017-06-30T05:12:59.014Z,80.8
2017-06-30T05:14:57.491Z,80.4
2017-06-30T05:15:56.698Z,79.6
2017-06-30T05:16:55.903Z,79.7
2017-06-30T05:17:55.110Z,80.4
2017-06-30T05:18:54.698Z,80.6
2017-06-30T05:19:53.910Z,80.5
2017-06-30T05:20:53.105Z,80.4
2017-06-30T05:21:52.314Z,80.3
2017-06-30T05:22:51.514Z,80.4
2017-06-30T05:23:50.982Z,80.5
2017-06-30T05:24:50.185Z,80.7
2017-06-30T05:25:49.391Z,80.5
2017-06-30T05:26:48.475Z,80.4
2017-06-30T05:27:48.187Z,80.3
2017-06-30T05:28:47.158Z,80
2017-06-30T05:29:46.615Z,80
2017-06-30T05:30:45.897Z,79.9
2017-06-30T05:31:16.300Z,79.9
2017-06-30T05:32:44.194Z,79.8
2017-06-30T05:33:43.789Z,79.9
2017-06-30T05:34:43.003Z,79.8
2017-06-30T05:35:42.343Z,80.1
2017-06-30T05:37:40.432Z,79.4
2017-06-30T05:38:40.144Z,79.6
2017-06-30T05:39:39.356Z,79.4
2017-06-30T05:40:38.438Z,79.5
2017-06-30T05:41:37.894Z,79.1
2017-06-30T05:42:37.101Z,79.1
2017-06-30T05:43:36.304Z,79.1
2017-06-30T05:44:35.510Z,79.2
2017-06-30T05:45:34.714Z,78.9
2017-06-30T05:46:33.917Z,78.7
2017-06-30T05:47:33.874Z,78.6
2017-06-30T05:48:32.578Z,78.6
2017-06-30T05:49:31.844Z,78.6
2017-06-30T05:50:31.074Z,78.6
2017-06-30T05:51:30.277Z,78.4
2017-06-30T05:52:29.749Z,78.3
2017-06-30T05:53:29.084Z,78.2
2017-06-30T05:54:28.181Z,78.2
2017-06-30T05:55:27.389Z,78.2
2017-06-30T05:56:26.979Z,78.3
2017-06-30T05:58:25.572Z,77.8
2017-06-30T05:59:25.035Z,77.6
2017-06-30T06:00:24.138Z,77.9
2017-06-30T06:01:23.358Z,78
2017-06-30T06:02:22.569Z,78
2017-06-30T06:03:21.780Z,77.8
2017-06-30T06:04:20.987Z,78
2017-06-30T06:05:20.997Z,78
2017-06-30T06:06:19.705Z,77.5
2017-06-30T06:07:18.898Z,77.5
2017-06-30T06:08:18.107Z,77.5
2017-06-30T06:09:17.198Z,78
2017-06-30T06:10:16.794Z,77.9
2017-06-30T06:11:16.245Z,77.2
2017-06-30T06:12:15.215Z,77.5
2017-06-30T06:13:14.981Z,77.3
2017-06-30T06:14:13.673Z,77
2017-06-30T06:15:13.260Z,77.1
2017-06-30T06:16:12.475Z,77.1
2017-06-30T06:17:11.934Z,76.6
2017-06-30T06:18:11.136Z,77.2
2017-06-30T06:19:10.343Z,76.8
2017-06-30T06:20:09.617Z,76.8
2017-06-30T06:21:08.823Z,77.4
2017-06-30T06:22:08.030Z,76.7
2017-06-30T06:23:07.486Z,76.5
2017-06-30T06:24:06.687Z,76.7
2017-06-30T06:25:05.772Z,76.7
2017-06-30T06:26:04.975Z,76.7
2017-06-30T06:27:04.576Z,76.3
2017-06-30T06:28:03.786Z,77
2017-06-30T06:29:03.253Z,76.5
2017-06-30T06:30:02.451Z,76.8
2017-06-30T06:31:01.786Z,76.6
2017-06-30T06:32:00.764Z,76.7
2017-06-30T06:33:00.040Z,76.1
2017-06-30T06:33:59.647Z,75.6
2017-06-30T06:34:59.099Z,76.2
2017-06-30T06:35:57.785Z,76.3
2017-06-30T06:36:57.497Z,75.7
2017-06-30T06:37:56.581Z,76.2
2017-06-30T06:38:55.780Z,75.7
2017-06-30T06:39:55.377Z,75.1
2017-06-30T06:40:25.909Z,75.1
2017-06-30T06:40:55.937Z,75.3
2017-06-30T06:41:26.345Z,75.3
2017-06-30T06:42:53.229Z,75.7
2017-06-30T06:43:52.514Z,75.7
2017-06-30T06:44:51.759Z,75.4
2017-06-30T06:45:51.234Z,75.1
2017-06-30T06:46:50.316Z,75
2017-06-30T06:47:49.391Z,75
2017-06-30T06:48:48.481Z,75.2
2017-06-30T06:49:48.187Z,75.4
2017-06-30T06:50:47.155Z,75.8
2017-06-30T06:51:46.605Z,75.2
2017-06-30T06:52:45.575Z,75.3
2017-06-30T06:53:45.040Z,75.3
2017-06-30T06:55:43.895Z,75
2017-06-30T06:56:43.041Z,75
2017-06-30T06:57:42.493Z,74.2
2017-06-30T06:58:41.711Z,74.4
2017-06-30T06:59:40.871Z,74.4
2017-06-30T07:00:40.078Z,74.4
2017-06-30T07:01:39.856Z,74.4
2017-06-30T07:02:38.567Z,74
2017-06-30T07:03:38.040Z,73.1
2017-06-30T07:05:36.639Z,74.2
2017-06-30T07:06:35.857Z,74.4
2017-06-30T07:07:34.945Z,74.5
2017-06-30T07:08:34.647Z,74.1
2017-06-30T07:09:33.984Z,73.3
2017-06-30T07:10:32.969Z,74
2017-06-30T07:11:32.187Z,72.9
2017-06-30T07:12:31.400Z,72.7
2017-06-30T07:13:30.983Z,72.9
2017-06-30T07:14:30.213Z,73.2
2017-06-30T07:15:29.538Z,72.5
2017-06-30T07:16:28.623Z,72
2017-06-30T07:17:27.830Z,72.3
2017-06-30T07:18:27.320Z,72.3
2017-06-30T07:19:26.526Z,72.3
2017-06-30T07:20:25.735Z,71.9
2017-06-30T07:21:25.701Z,72
2017-06-30T07:22:24.408Z,71.1
2017-06-30T07:23:23.617Z,71.1
2017-06-30T07:24:22.707Z,71.3
2017-06-30T07:25:22.297Z,70.4
2017-06-30T07:26:21.501Z,71.1
2017-06-30T07:27:21.029Z,71.3
2017-06-30T07:28:20.233Z,71.3
2017-06-30T07:29:19.444Z,71.1
2017-06-30T07:30:18.655Z,71.8
2017-06-30T07:31:18.372Z,71.2
2017-06-30T07:32:17.572Z,70.5
2017-06-30T07:33:16.904Z,71.6
2017-06-30T07:34:16.151Z,72.1
2017-06-30T07:35:15.368Z,71.4
2017-06-30T07:36:14.577Z,71.4
2017-06-30T07:37:13.784Z,71.4
2017-06-30T07:38:12.990Z,71.9
2017-06-30T07:39:12.842Z,71.4
2017-06-30T07:40:11.554Z,71.3
2017-06-30T07:41:11.275Z,71.3
2017-06-30T07:42:10.486Z,71.8
2017-06-30T07:43:09.690Z,71.5
2017-06-30T07:44:08.898Z,72
2017-06-30T07:45:08.351Z,72.6
2017-06-30T07:46:07.558Z,72.5
2017-06-30T07:47:06.529Z,72.5
2017-06-30T07:48:06.004Z,71.7
2017-06-30T07:49:05.209Z,72.3
2017-06-30T07:50:04.502Z,72.4
2017-06-30T07:51:04.326Z,71.8
2017-06-30T07:52:03.539Z,71.8
2017-06-30T07:54:01.634Z,72
2017-06-30T07:55:01.333Z,72
2017-06-30T07:56:00.417Z,72
2017-06-30T07:56:59.830Z,72
2017-06-30T07:57:58.919Z,71.6
2017-06-30T07:58:58.513Z,71.9
2017-06-30T07:59:57.718Z,71.9
2017-06-30T08:00:56.960Z,72.1
2017-06-30T08:01:56.162Z,71.9
2017-06-30T08:02:55.692Z,72.1
2017-06-30T08:03:54.896Z,72
2017-06-30T08:04:25.987Z,72
2017-06-30T08:04:55.998Z,72
2017-06-30T08:05:53.759Z,71.6
2017-06-30T08:06:52.470Z,71.8
2017-06-30T08:07:52.190Z,72.3
2017-06-30T08:08:51.661Z,71.7
2017-06-30T08:09:50.813Z,71.9
2017-06-30T08:10:50.020Z,70.9
2017-06-30T08:11:49.228Z,70.9
2017-06-30T08:12:48.431Z,70.9
2017-06-30T08:13:47.648Z,72.1
2017-06-30T08:14:47.104Z,71.1
2017-06-30T08:15:46.949Z,71.6
2017-06-30T08:16:45.664Z,72.1
2017-06-30T08:17:44.879Z,71.7
2017-06-30T08:18:44.086Z,72
2017-06-30T08:19:43.363Z,71.7
2017-06-30T08:20:42.827Z,72.1
2017-06-30T08:21:42.025Z,72.2
2017-06-30T08:22:41.223Z,71.8
2017-06-30T08:23:40.857Z,71.6
2017-06-30T08:24:39.936Z,71.6
2017-06-30T08:25:39.021Z,71.9
2017-06-30T08:26:38.858Z,71.9
2017-06-30T08:27:38.060Z,72.2
2017-06-30T08:28:37.274Z,71.6
2017-06-30T08:29:36.544Z,71.6
2017-06-30T08:30:35.750Z,71.6
2017-06-30T08:31:34.962Z,72
2017-06-30T08:32:34.429Z,72.1
2017-06-30T08:33:34.197Z,71.8
2017-06-30T08:34:33.469Z,71.4
2017-06-30T08:36:31.329Z,71
2017-06-30T08:37:31.057Z,71.2
2017-06-30T08:38:30.400Z,72
2017-06-30T08:39:29.369Z,71.6
2017-06-30T08:40:28.575Z,71.6
2017-06-30T08:41:27.557Z,71.2
2017-06-30T08:42:27.275Z,71.3
2017-06-30T08:43:26.539Z,71.1
2017-06-30T08:44:25.894Z,70.9
2017-06-30T08:45:24.974Z,71.4
2017-06-30T08:46:24.557Z,70.1
2017-06-30T08:47:23.760Z,70.1
2017-06-30T08:48:22.969Z,70.1
2017-06-30T08:49:22.212Z,69.6
2017-06-30T08:50:22.173Z,69.6
2017-06-30T08:51:20.944Z,68.3
2017-06-30T08:52:20.152Z,67.8
2017-06-30T08:53:20.427Z,68.7
2017-06-30T08:54:19.013Z,67
2017-06-30T08:55:18.227Z,67.3
2017-06-30T08:56:17.564Z,67
2017-06-30T08:57:16.689Z,66.8
2017-06-30T08:58:16.749Z,66.4
2017-06-30T08:59:15.447Z,65.6
2017-06-30T08:59:45.968Z,65.6
2017-06-30T09:00:16.496Z,66.8
2017-06-30T09:00:46.786Z,66.8
2017-06-30T09:02:13.432Z,65.7
2017-06-30T09:03:12.528Z,65.5
2017-06-30T09:04:12.253Z,66.5
2017-06-30T09:05:11.463Z,66.5
2017-06-30T09:06:11.287Z,66.5
2017-06-30T09:07:09.990Z,66.1
2017-06-30T09:08:09.462Z,65.3
2017-06-30T09:09:08.674Z,65.5
2017-06-30T09:10:07.883Z,65.7
2017-06-30T09:11:06.966Z,65.5
2017-06-30T09:12:07.012Z,65.3
2017-06-30T09:13:05.920Z,64.4
2017-06-30T09:14:05.261Z,65.2
2017-06-30T09:15:04.541Z,64.5
2017-06-30T09:16:03.704Z,64.3
2017-06-30T09:17:02.761Z,63.1
2017-06-30T09:18:02.245Z,63.7
2017-06-30T09:19:01.544Z,64.3
2017-06-30T09:20:01.421Z,64.1
2017-06-30T09:21:00.141Z,64.6
2017-06-30T09:21:59.737Z,64.7
2017-06-30T09:22:59.165Z,64.7
2017-06-30T09:24:57.775Z,64.7
2017-06-30T09:25:57.230Z,64.9
2017-06-30T09:26:56.441Z,65.2
2017-06-30T09:27:55.533Z,64
2017-06-30T09:28:54.754Z,63.9
2017-06-30T09:29:54.526Z,65.9
2017-06-30T09:30:53.226Z,65.3
2017-06-30T09:31:53.102Z,64.7
2017-06-30T09:32:52.196Z,65.1
2017-06-30T09:33:51.411Z,65.3
2017-06-30T09:34:51.075Z,65.4
2017-06-30T09:35:50.156Z,65.8
2017-06-30T09:36:49.359Z,65.8
2017-06-30T09:37:49.548Z,65.8
2017-06-30T09:38:47.754Z,65.6
2017-06-30T09:39:47.349Z,66.4
2017-06-30T09:40:17.861Z,66.4
2017-06-30T09:41:46.140Z,65.6
2017-06-30T09:42:45.361Z,65.5
2017-06-30T09:43:44.818Z,65.9
2017-06-30T09:45:43.412Z,65.4
2017-06-30T09:46:42.618Z,66.1
2017-06-30T09:47:41.708Z,66
2017-06-30T09:48:40.915Z,66.1
2017-06-30T09:49:40.809Z,65.4
2017-06-30T09:50:39.516Z,65.2
2017-06-30T09:51:39.222Z,65.1
2017-06-30T09:52:38.416Z,66.4
2017-06-30T09:53:37.639Z,65.4
2017-06-30T09:54:36.839Z,66.5
2017-06-30T09:55:36.364Z,66.1
2017-06-30T09:56:35.328Z,65.8
2017-06-30T09:57:34.984Z,64.9
2017-06-30T09:59:33.568Z,64.9
2017-06-30T10:00:32.916Z,64.9
2017-06-30T10:01:32.429Z,65.4
2017-06-30T10:02:31.645Z,64.4
2017-06-30T10:03:30.931Z,65.3
2017-06-30T10:04:30.736Z,65.4
2017-06-30T10:05:29.431Z,64.9
2017-06-30T10:06:28.533Z,65.5
2017-06-30T10:07:28.510Z,65.8
2017-06-30T10:08:27.224Z,64.7
2017-06-30T10:09:26.938Z,64.3
2017-06-30T10:10:26.146Z,64.8
2017-06-30T10:11:25.610Z,64.4
2017-06-30T10:12:24.702Z,65
2017-06-30T10:13:24.054Z,64.8
2017-06-30T10:14:23.516Z,65
2017-06-30T10:15:22.715Z,65.7
2017-06-30T10:16:21.923Z,65.7
2017-06-30T10:17:21.123Z,65.7
2017-06-30T10:19:19.977Z,64.5
2017-06-30T10:20:19.059Z,64.3
2017-06-30T10:21:18.654Z,64.2
2017-06-30T10:22:17.994Z,64.3
2017-06-30T10:24:16.590Z,64.2
2017-06-30T10:25:16.059Z,64.1
2017-06-30T10:26:15.259Z,64.2
2017-06-30T10:27:14.482Z,62.2
2017-06-30T10:28:13.705Z,61.5
2017-06-30T10:29:12.921Z,61.6
2017-06-30T10:30:12.630Z,60.8
2017-06-30T10:31:12.105Z,59.3
2017-06-30T10:32:10.820Z,59.9
2017-06-30T10:33:10.544Z,58.7
2017-06-30T10:34:09.394Z,58.7
2017-06-30T10:35:08.972Z,58.7
2017-06-30T10:36:08.188Z,59
2017-06-30T10:37:08.147Z,58.7
2017-06-30T10:38:06.719Z,59.4
2017-06-30T10:39:06.305Z,58.5
2017-06-30T10:40:05.385Z,58.7
2017-06-30T10:41:04.982Z,58
2017-06-30T10:42:04.073Z,58
2017-06-30T10:43:04.027Z,57.9
2017-06-30T10:44:03.222Z,58.1
2017-06-30T10:45:02.427Z,57.5
2017-06-30T10:46:02.354Z,57.8
2017-06-30T10:47:01.066Z,56.5
2017-06-30T10:48:00.292Z,56.9
2017-06-30T10:48:59.757Z,56.7
2017-06-30T10:49:58.843Z,57.5
2017-06-30T10:50:58.552Z,56.3
2017-06-30T10:51:57.766Z,56.3
2017-06-30T10:52:57.253Z,56.3
2017-06-30T10:53:56.352Z,56.3
2017-06-30T10:54:55.817Z,56.4
2017-06-30T10:55:54.897Z,56.3
2017-06-30T10:56:54.608Z,55.7
2017-06-30T10:57:53.817Z,55.7
2017-06-30T10:58:53.020Z,56.6
2017-06-30T10:59:52.621Z,57.7
2017-06-30T11:01:51.360Z,55.9
2017-06-30T11:02:50.441Z,56.4
2017-06-30T11:03:49.413Z,55.8
2017-06-30T11:04:49.407Z,54.3
2017-06-30T11:05:48.620Z,54.5
2017-06-30T11:06:47.725Z,55.5
2017-06-30T11:07:47.687Z,53.4
2017-06-30T11:08:46.394Z,54.4
2017-06-30T11:10:45.494Z,53.9
2017-06-30T11:11:44.697Z,55.2
2017-06-30T11:12:43.917Z,53.8
2017-06-30T11:13:43.314Z,55.5
2017-06-30T11:14:42.515Z,54.9
2017-06-30T11:15:41.992Z,55.2
2017-06-30T11:16:41.460Z,55.1
2017-06-30T11:17:40.661Z,55.7
2017-06-30T11:18:40.029Z,55.6
2017-06-30T11:19:11.188Z,55.6
2017-06-30T11:20:39.076Z,56
2017-06-30T11:21:38.186Z,54.7
2017-06-30T11:22:37.399Z,56.3
2017-06-30T11:23:37.146Z,56
2017-06-30T11:24:36.611Z,56
2017-06-30T11:25:35.806Z,56.2
2017-06-30T11:26:35.021Z,54.8
2017-06-30T11:27:34.221Z,54.8
2017-06-30T11:28:34.497Z,54.8
2017-06-30T11:29:33.205Z,55.5
2017-06-30T11:30:32.675Z,56.2
2017-06-30T11:31:31.890Z,55
2017-06-30T11:32:30.986Z,55.4
2017-06-30T11:33:30.689Z,55
2017-06-30T11:34:29.769Z,55.9
2017-06-30T11:35:29.570Z,55.1
2017-06-30T11:36:28.548Z,54.8
2017-06-30T11:37:27.638Z,54.4
2017-06-30T11:38:27.227Z,54.2
2017-06-30T11:39:27.005Z,54.9
2017-06-30T11:40:26.094Z,53.5
2017-06-30T11:41:25.181Z,54.7
2017-06-30T11:42:25.137Z,54.7
2017-06-30T11:43:23.755Z,54.2
2017-06-30T11:44:23.468Z,53.9
2017-06-30T11:45:22.689Z,54.7
2017-06-30T11:46:21.770Z,54.7
2017-06-30T11:47:21.477Z,54.9
2017-06-30T11:48:20.945Z,55.1
2017-06-30T11:49:20.041Z,55.1
2017-06-30T11:50:19.670Z,55
2017-06-30T11:51:18.897Z,54.9
2017-06-30T11:52:18.670Z,55.5
2017-06-30T11:53:17.755Z,55.5
2017-06-30T11:54:17.202Z,55.3
2017-06-30T11:55:16.415Z,56.6
2017-06-30T11:56:15.621Z,55.7
2017-06-30T11:57:14.812Z,55.1
2017-06-30T11:58:14.519Z,55.2
2017-06-30T11:59:13.408Z,56.3
2017-06-30T12:00:13.146Z,56.3
2017-06-30T12:01:12.738Z,56.2
2017-06-30T12:01:43.252Z,56.2
2017-06-30T12:03:11.090Z,56.3
2017-06-30T12:05:09.696Z,56.8
2017-06-30T12:06:09.427Z,56.2
2017-06-30T12:07:08.523Z,56.2
2017-06-30T12:08:08.829Z,56.3
2017-06-30T12:09:07.411Z,55.5
2017-06-30T12:10:06.617Z,55.5
2017-06-30T12:11:06.273Z,54.5
2017-06-30T12:12:05.923Z,54.4
2017-06-30T12:13:04.624Z,54.7
2017-06-30T12:14:04.791Z,55.2
2017-06-30T12:15:03.376Z,54.8
2017-06-30T12:16:03.078Z,53.9
2017-06-30T12:17:02.293Z,54.6
2017-06-30T12:18:01.630Z,53.5
2017-06-30T12:19:00.831Z,54.1
2017-06-30T12:20:00.112Z,52.9
2017-06-30T12:20:59.823Z,54.1
2017-06-30T12:21:59.038Z,54.1
2017-06-30T12:22:58.236Z,54.3
2017-06-30T12:24:57.511Z,53.2
2017-06-30T12:25:56.216Z,54
2017-06-30T12:26:55.928Z,53.5
2017-06-30T12:27:55.010Z,53.5
2017-06-30T12:30:53.755Z,52.7
2017-06-30T12:31:53.022Z,53.3
2017-06-30T12:32:52.226Z,51.7
2017-06-30T12:33:51.451Z,53.4
2017-06-30T12:34:50.733Z,52.7
2017-06-30T12:35:49.949Z,53.5
2017-06-30T12:36:49.916Z,51.1
2017-06-30T12:37:49.136Z,51.5
2017-06-30T12:38:48.351Z,53.3
2017-06-30T12:39:47.443Z,53.3
2017-06-30T12:40:47.105Z,53.3
2017-06-30T12:41:46.371Z,51.1
2017-06-30T12:42:45.849Z,51.5
2017-06-30T12:43:44.974Z,51.5
2017-06-30T12:44:44.750Z,51.4
2017-06-30T12:45:43.839Z,50.9
2017-06-30T12:46:43.442Z,50.9
2017-06-30T12:47:42.794Z,50.5
2017-06-30T12:48:42.250Z,50.3
2017-06-30T12:49:41.498Z,49.7
2017-06-30T12:50:41.101Z,51.4
2017-06-30T12:51:40.187Z,49.9
2017-06-30T12:52:39.277Z,50.8
2017-06-30T12:53:38.992Z,49.3
2017-06-30T12:54:38.440Z,49.4
2017-06-30T12:55:37.628Z,48.9
2017-06-30T12:56:37.407Z,49.2
2017-06-30T12:57:36.614Z,49.2
2017-06-30T12:58:35.826Z,49.2
2017-06-30T12:59:35.304Z,49
2017-06-30T13:00:35.751Z,48.7
2017-06-30T13:01:33.895Z,49.6
2017-06-30T13:02:33.610Z,49.9
2017-06-30T13:03:32.814Z,48.8
2017-06-30T13:04:32.019Z,49.3
2017-06-30T13:05:31.484Z,48.8
2017-06-30T13:06:31.325Z,48.3
2017-06-30T13:07:30.407Z,49.4
2017-06-30T13:08:29.619Z,48.7
2017-06-30T13:09:29.369Z,48.7
2017-06-30T13:10:29.018Z,48.8
2017-06-30T13:11:27.732Z,48.8
2017-06-30T13:11:58.504Z,48.8
2017-06-30T13:12:28.795Z,48.1
2017-06-30T13:12:59.379Z,48.1
2017-06-30T13:16:25.057Z,48.7
2017-06-30T13:17:24.526Z,48.3
2017-06-30T13:18:23.732Z,49.1
2017-06-30T13:19:22.819Z,48.9
2017-06-30T13:20:22.419Z,48.9
2017-06-30T13:21:21.695Z,49.1
2017-06-30T13:22:21.414Z,49.6
2017-06-30T13:23:20.746Z,48.9
2017-06-30T13:24:19.960Z,49.7
2017-06-30T13:25:19.170Z,50.2
2017-06-30T13:26:18.884Z,49.2
2017-06-30T13:27:18.360Z,49
2017-06-30T13:28:18.184Z,49.5
2017-06-30T13:29:17.182Z,48.6
2017-06-30T13:30:16.378Z,48.9
2017-06-30T13:31:15.474Z,49
2017-06-30T13:32:15.188Z,48.7
2017-06-30T13:33:14.775Z,48.7
2017-06-30T13:34:13.978Z,48.7
2017-06-30T13:35:14.016Z,49.6